createdAt,value
2023-02-11T00:00:22.903Z,1010.97
2023-02-11T00:01:22.868Z,1011.05
2023-02-11T00:02:22.907Z,1011.08
2023-02-11T00:03:22.867Z,1010.96
2023-02-11T00:04:22.848Z,1010.90
2023-02-11T00:05:22.837Z,1010.89
2023-02-11T00:06:22.838Z,1010.95
2023-02-11T00:07:22.840Z,1010.90
2023-02-11T00:08:22.812Z,1010.85
2023-02-11T00:09:22.808Z,1010.91
2023-02-11T00:10:22.806Z,1010.79
2023-02-11T00:11:22.854Z,1010.86
2023-02-11T00:12:22.798Z,1010.74
2023-02-11T00:13:22.792Z,1010.82
2023-02-11T00:14:22.783Z,1010.71
2023-02-11T00:15:22.761Z,1010.86
2023-02-11T00:16:22.910Z,1010.76
2023-02-11T00:17:22.781Z,1010.73
2023-02-11T00:18:22.760Z,1010.69
2023-02-11T00:19:22.752Z,1010.73
2023-02-11T00:20:22.773Z,1010.67
2023-02-11T00:21:22.752Z,1010.70
2023-02-11T00:22:22.764Z,1010.62
2023-02-11T00:23:22.729Z,1010.67
2023-02-11T00:24:22.714Z,1010.68
2023-02-11T00:25:22.705Z,1010.63
2023-02-11T00:26:22.696Z,1010.55
2023-02-11T00:27:22.724Z,1010.55
2023-02-11T00:28:22.692Z,1010.57
2023-02-11T00:29:22.680Z,1010.56
2023-02-11T00:30:22.673Z,1010.50
2023-02-11T00:31:22.891Z,1010.57
2023-02-11T00:32:22.748Z,1010.58
2023-02-11T00:33:22.701Z,1010.50
2023-02-11T00:34:22.696Z,1010.55
2023-02-11T00:35:22.702Z,1010.51
2023-02-11T00:36:22.678Z,1010.57
2023-02-11T00:37:22.731Z,1010.47
2023-02-11T00:38:22.683Z,1010.47
2023-02-11T00:39:22.684Z,1010.41
2023-02-11T00:40:22.655Z,1010.36
2023-02-11T00:41:22.643Z,1010.31
2023-02-11T00:42:22.762Z,1010.39
2023-02-11T00:43:22.641Z,1010.28
2023-02-11T00:44:22.647Z,1010.29
2023-02-11T00:45:22.640Z,1010.30
2023-02-11T00:46:22.669Z,1010.29
2023-02-11T00:47:23.382Z,1010.26
2023-02-11T00:48:22.606Z,1010.31
2023-02-11T00:49:22.605Z,1010.33
2023-02-11T00:50:22.579Z,1010.33
2023-02-11T00:51:22.527Z,1010.29
2023-02-11T00:52:22.513Z,1010.35
2023-02-11T00:53:22.606Z,1010.34
2023-02-11T00:54:22.570Z,1010.30
2023-02-11T00:55:22.562Z,1010.25
2023-02-11T00:56:22.554Z,1010.18
2023-02-11T00:57:22.546Z,1010.21
2023-02-11T00:58:22.555Z,1010.23
2023-02-11T00:59:22.524Z,1010.22
2023-02-11T01:00:22.531Z,1010.22
2023-02-11T01:01:22.583Z,1010.25
2023-02-11T01:02:22.511Z,1010.20
2023-02-11T01:03:22.548Z,1010.15
2023-02-11T01:04:22.517Z,1010.15
2023-02-11T01:05:22.551Z,1010.20
2023-02-11T01:06:22.469Z,1010.27
2023-02-11T01:07:22.479Z,1010.26
2023-02-11T01:08:22.508Z,1010.21
2023-02-11T01:09:22.476Z,1010.14
2023-02-11T01:10:22.464Z,1010.21
2023-02-11T01:11:22.453Z,1010.10
2023-02-11T01:12:22.448Z,1010.09
2023-02-11T01:13:22.478Z,1010.06
2023-02-11T01:14:22.460Z,1010.05
2023-02-11T01:15:22.437Z,1010.09
2023-02-11T01:16:22.515Z,1010.07
2023-02-11T01:17:22.392Z,1010.09
2023-02-11T01:18:22.416Z,1010.11
2023-02-11T01:19:22.441Z,1010.16
2023-02-11T01:20:22.394Z,1010.14
2023-02-11T01:21:22.385Z,1010.17
2023-02-11T01:22:22.382Z,1010.15
2023-02-11T01:23:22.389Z,1010.15
2023-02-11T01:24:22.332Z,1010.05
2023-02-11T01:25:22.403Z,1010.20
2023-02-11T01:26:22.373Z,1010.17
2023-02-11T01:27:22.357Z,1010.30
2023-02-11T01:28:22.410Z,1010.24
2023-02-11T01:29:22.359Z,1010.19
2023-02-11T01:30:22.372Z,1010.20
2023-02-11T01:31:22.389Z,1010.21
2023-02-11T01:32:22.321Z,1010.32
2023-02-11T01:33:22.320Z,1010.30
2023-02-11T01:34:22.381Z,1010.35
2023-02-11T01:35:22.318Z,1010.33
2023-02-11T01:36:22.320Z,1010.38
2023-02-11T01:37:22.283Z,1010.43
2023-02-11T01:38:22.297Z,1010.41
2023-02-11T01:39:22.275Z,1010.46
2023-02-11T01:40:22.310Z,1010.40
2023-02-11T01:41:22.252Z,1010.42
2023-02-11T01:42:23.223Z,1010.47
2023-02-11T01:43:22.312Z,1010.48
2023-02-11T01:44:22.238Z,1010.37
2023-02-11T01:45:22.247Z,1010.42
2023-02-11T01:46:22.345Z,1010.42
2023-02-11T01:47:22.225Z,1010.45
2023-02-11T01:48:22.224Z,1010.44
2023-02-11T01:49:22.335Z,1010.47
2023-02-11T01:50:22.194Z,1010.49
2023-02-11T01:51:22.209Z,1010.52
2023-02-11T01:52:22.235Z,1010.43
2023-02-11T01:53:22.832Z,1010.48
2023-02-11T01:54:22.161Z,1010.44
2023-02-11T01:55:22.166Z,1010.38
2023-02-11T01:56:22.165Z,1010.43
2023-02-11T01:57:22.152Z,1010.41
2023-02-11T01:58:22.147Z,1010.40
2023-02-11T01:59:22.131Z,1010.43
2023-02-11T02:00:22.073Z,1010.47
2023-02-11T02:01:22.112Z,1010.37
2023-02-11T02:02:22.064Z,1010.44
2023-02-11T02:03:22.109Z,1010.40
2023-02-11T02:04:22.202Z,1010.33
2023-02-11T02:05:22.033Z,1010.25
2023-02-11T02:06:22.027Z,1010.26
2023-02-11T02:07:22.020Z,1010.39
2023-02-11T02:08:22.015Z,1010.51
2023-02-11T02:09:22.018Z,1010.49
2023-02-11T02:10:22.027Z,1010.37
2023-02-11T02:11:22.029Z,1010.33
2023-02-11T02:12:21.993Z,1010.32
2023-02-11T02:13:21.984Z,1010.25
2023-02-11T02:14:21.977Z,1010.26
2023-02-11T02:15:21.969Z,1010.24
2023-02-11T02:16:22.015Z,1010.19
2023-02-11T02:17:21.945Z,1010.30
2023-02-11T02:18:22.963Z,1010.25
2023-02-11T02:19:21.943Z,1010.22
2023-02-11T02:20:21.931Z,1010.17
2023-02-11T02:21:21.960Z,1010.08
2023-02-11T02:22:22.043Z,1010.15
2023-02-11T02:23:21.925Z,1010.00
2023-02-11T02:24:21.934Z,1009.99
2023-02-11T02:25:21.904Z,1009.93
2023-02-11T02:26:21.910Z,1009.88
2023-02-11T02:27:21.892Z,1009.83
2023-02-11T02:28:21.939Z,1009.87
2023-02-11T02:29:21.875Z,1009.94
2023-02-11T02:30:21.906Z,1010.02
2023-02-11T02:31:21.944Z,1009.89
2023-02-11T02:32:21.859Z,1010.01
2023-02-11T02:33:22.812Z,1009.95
2023-02-11T02:34:22.847Z,1009.92
2023-02-11T02:35:21.830Z,1009.88
2023-02-11T02:36:21.855Z,1009.88
2023-02-11T02:37:21.845Z,1009.87
2023-02-11T02:38:22.897Z,1009.88
2023-02-11T02:39:21.810Z,1009.83
2023-02-11T02:40:21.823Z,1009.81
2023-02-11T02:41:21.819Z,1009.83
2023-02-11T02:42:21.781Z,1009.72
2023-02-11T02:43:21.775Z,1009.84
2023-02-11T02:44:21.823Z,1009.82
2023-02-11T02:45:21.794Z,1009.80
2023-02-11T02:46:21.808Z,1009.81
2023-02-11T02:47:21.771Z,1009.87
2023-02-11T02:48:21.756Z,1009.78
2023-02-11T02:49:22.748Z,1009.90
2023-02-11T02:50:21.735Z,1009.83
2023-02-11T02:51:21.724Z,1009.88
2023-02-11T02:52:21.821Z,1009.82
2023-02-11T02:53:21.723Z,1009.78
2023-02-11T02:54:21.724Z,1009.89
2023-02-11T02:55:21.706Z,1009.91
2023-02-11T02:56:21.748Z,1009.99
2023-02-11T02:57:21.685Z,1010.07
2023-02-11T02:58:21.688Z,1009.95
2023-02-11T02:59:21.720Z,1009.93
2023-02-11T03:00:21.738Z,1010.04
2023-02-11T03:01:21.665Z,1010.03
2023-02-11T03:02:21.672Z,1009.95
2023-02-11T03:03:21.667Z,1009.92
2023-02-11T03:04:21.637Z,1009.98
2023-02-11T03:05:21.639Z,1009.87
2023-02-11T03:06:21.638Z,1009.78
2023-02-11T03:07:21.621Z,1009.79
2023-02-11T03:08:21.621Z,1009.74
2023-02-11T03:09:21.642Z,1009.84
2023-02-11T03:10:21.593Z,1009.78
2023-02-11T03:11:21.589Z,1009.79
2023-02-11T03:12:21.586Z,1009.80
2023-02-11T03:13:21.581Z,1009.65
2023-02-11T03:14:21.599Z,1009.66
2023-02-11T03:15:21.562Z,1009.63
2023-02-11T03:16:21.628Z,1009.74
2023-02-11T03:17:21.553Z,1009.62
2023-02-11T03:18:21.547Z,1009.57
2023-02-11T03:19:21.546Z,1009.68
2023-02-11T03:20:21.549Z,1009.68
2023-02-11T03:21:21.527Z,1009.56
2023-02-11T03:22:21.515Z,1009.59
2023-02-11T03:23:21.518Z,1009.59
2023-02-11T03:24:21.513Z,1009.53
2023-02-11T03:25:21.506Z,1009.47
2023-02-11T03:26:21.504Z,1009.45
2023-02-11T03:27:21.510Z,1009.35
2023-02-11T03:28:21.531Z,1009.39
2023-02-11T03:29:21.462Z,1009.30
2023-02-11T03:30:21.482Z,1009.33
2023-02-11T03:31:21.612Z,1009.33
2023-02-11T03:32:21.460Z,1009.35
2023-02-11T03:33:21.436Z,1009.42
2023-02-11T03:34:21.468Z,1009.40
2023-02-11T03:35:21.463Z,1009.45
2023-02-11T03:36:21.437Z,1009.47
2023-02-11T03:37:21.424Z,1009.45
2023-02-11T03:38:21.442Z,1009.47
2023-02-11T03:39:21.413Z,1009.49
2023-02-11T03:40:21.486Z,1009.44
2023-02-11T03:41:21.389Z,1009.43
2023-02-11T03:42:21.397Z,1009.37
2023-02-11T03:43:21.389Z,1009.35
2023-02-11T03:44:21.383Z,1009.28
2023-02-11T03:45:21.429Z,1009.36
2023-02-11T03:46:21.477Z,1009.45
2023-02-11T03:47:21.383Z,1009.34
2023-02-11T03:48:21.349Z,1009.36
2023-02-11T03:49:21.342Z,1009.29
2023-02-11T03:50:21.342Z,1009.30
2023-02-11T03:51:21.329Z,1009.33
2023-02-11T03:52:21.345Z,1009.32
2023-02-11T03:53:21.357Z,1009.21
2023-02-11T03:54:21.323Z,1009.35
2023-02-11T03:55:21.295Z,1009.42
2023-02-11T03:56:21.297Z,1009.37
2023-02-11T03:57:21.282Z,1009.39
2023-02-11T03:58:21.315Z,1009.34
2023-02-11T03:59:21.315Z,1009.27
2023-02-11T04:00:21.275Z,1009.26
2023-02-11T04:01:21.338Z,1009.30
2023-02-11T04:02:21.254Z,1009.29
2023-02-11T04:03:21.340Z,1009.30
2023-02-11T04:04:21.307Z,1009.34
2023-02-11T04:05:21.226Z,1009.36
2023-02-11T04:06:21.245Z,1009.34
2023-02-11T04:07:21.235Z,1009.33
2023-02-11T04:08:21.212Z,1009.31
2023-02-11T04:09:21.233Z,1009.37
2023-02-11T04:10:21.203Z,1009.26
2023-02-11T04:11:21.204Z,1009.33
2023-02-11T04:12:21.191Z,1009.30
2023-02-11T04:13:21.195Z,1009.37
2023-02-11T04:14:21.181Z,1009.32
2023-02-11T04:15:21.169Z,1009.27
2023-02-11T04:16:21.223Z,1009.24
2023-02-11T04:17:21.147Z,1009.28
2023-02-11T04:18:21.172Z,1009.28
2023-02-11T04:19:21.159Z,1009.25
2023-02-11T04:20:21.147Z,1009.20
2023-02-11T04:21:21.133Z,1009.19
2023-02-11T04:22:21.140Z,1009.20
2023-02-11T04:23:21.107Z,1009.16
2023-02-11T04:24:21.130Z,1009.18
2023-02-11T04:25:21.092Z,1009.26
2023-02-11T04:26:21.086Z,1009.14
2023-02-11T04:27:21.101Z,1009.18
2023-02-11T04:28:21.182Z,1009.23
2023-02-11T04:29:21.096Z,1009.32
2023-02-11T04:30:21.073Z,1009.33
2023-02-11T04:31:21.190Z,1009.40
2023-02-11T04:32:21.054Z,1009.38
2023-02-11T04:33:21.041Z,1009.36
2023-02-11T04:34:21.045Z,1009.42
2023-02-11T04:35:21.052Z,1009.38
2023-02-11T04:36:21.026Z,1009.44
2023-02-11T04:37:21.022Z,1009.41
2023-02-11T04:38:21.007Z,1009.34
2023-02-11T04:39:21.020Z,1009.39
2023-02-11T04:40:21.026Z,1009.30
2023-02-11T04:41:20.997Z,1009.34
2023-02-11T04:42:21.013Z,1009.24
2023-02-11T04:43:20.977Z,1009.23
2023-02-11T04:44:20.978Z,1009.20
2023-02-11T04:45:21.022Z,1009.20
2023-02-11T04:46:21.040Z,1009.22
2023-02-11T04:47:20.962Z,1009.28
2023-02-11T04:48:20.995Z,1009.24
2023-02-11T04:49:20.987Z,1009.25
2023-02-11T04:50:20.973Z,1009.23
2023-02-11T04:51:20.961Z,1009.30
2023-02-11T04:52:20.918Z,1009.28
2023-02-11T04:53:20.920Z,1009.32
2023-02-11T04:54:20.926Z,1009.38
2023-02-11T04:55:20.914Z,1009.38
2023-02-11T04:56:20.898Z,1009.33
2023-02-11T04:57:20.906Z,1009.35
2023-02-11T04:58:20.897Z,1009.35
2023-02-11T04:59:20.879Z,1009.48
2023-02-11T05:00:20.870Z,1009.37
2023-02-11T05:01:20.922Z,1009.34
2023-02-11T05:02:20.868Z,1009.31
2023-02-11T05:03:20.881Z,1009.31
2023-02-11T05:04:20.956Z,1009.34
2023-02-11T05:05:20.887Z,1009.33
2023-02-11T05:06:20.844Z,1009.47
2023-02-11T05:07:20.834Z,1009.38
2023-02-11T05:08:20.820Z,1009.45
2023-02-11T05:09:20.810Z,1009.36
2023-02-11T05:10:20.794Z,1009.36
2023-02-11T05:11:20.793Z,1009.40
2023-02-11T05:12:20.795Z,1009.36
2023-02-11T05:13:20.780Z,1009.38
2023-02-11T05:14:20.789Z,1009.39
2023-02-11T05:15:20.762Z,1009.38
2023-02-11T05:16:20.809Z,1009.42
2023-02-11T05:17:20.747Z,1009.38
2023-02-11T05:18:20.738Z,1009.39
2023-02-11T05:19:20.743Z,1009.40
2023-02-11T05:20:20.744Z,1009.39
2023-02-11T05:21:20.745Z,1009.32
2023-02-11T05:22:20.737Z,1009.25
2023-02-11T05:23:20.716Z,1009.23
2023-02-11T05:24:20.694Z,1009.21
2023-02-11T05:25:20.740Z,1009.27
2023-02-11T05:26:20.712Z,1009.24
2023-02-11T05:27:20.688Z,1009.31
2023-02-11T05:28:20.744Z,1009.24
2023-02-11T05:29:20.688Z,1009.20
2023-02-11T05:30:20.695Z,1009.21
2023-02-11T05:31:20.649Z,1009.18
2023-02-11T05:32:20.658Z,1009.21
2023-02-11T05:33:20.637Z,1009.21
2023-02-11T05:34:20.636Z,1009.17
2023-02-11T05:35:20.633Z,1009.12
2023-02-11T05:36:20.653Z,1009.24
2023-02-11T05:37:20.620Z,1009.05
2023-02-11T05:38:20.610Z,1009.10
2023-02-11T05:39:20.593Z,1009.08
2023-02-11T05:40:21.594Z,1009.14
2023-02-11T05:41:20.608Z,1009.19
2023-02-11T05:42:20.650Z,1009.14
2023-02-11T05:43:20.577Z,1009.09
2023-02-11T05:44:20.561Z,1009.08
2023-02-11T05:45:20.574Z,1009.14
2023-02-11T05:46:20.627Z,1009.13
2023-02-11T05:47:20.570Z,1009.13
2023-02-11T05:48:20.555Z,1009.14
2023-02-11T05:49:20.532Z,1009.09
2023-02-11T05:50:20.526Z,1009.09
2023-02-11T05:51:20.573Z,1009.14
2023-02-11T05:52:20.510Z,1009.18
2023-02-11T05:53:20.526Z,1009.15
2023-02-11T05:54:20.526Z,1009.19
2023-02-11T05:55:20.503Z,1009.19
2023-02-11T05:56:20.568Z,1009.18
2023-02-11T05:57:20.486Z,1009.19
2023-02-11T05:58:20.494Z,1009.21
2023-02-11T05:59:20.474Z,1009.23
2023-02-11T06:00:20.463Z,1009.25
2023-02-11T06:01:20.445Z,1009.29
2023-02-11T06:02:20.492Z,1009.28
2023-02-11T06:03:20.496Z,1009.22
2023-02-11T06:04:20.435Z,1009.32
2023-02-11T06:05:20.421Z,1009.37
2023-02-11T06:06:20.414Z,1009.31
2023-02-11T06:07:20.426Z,1009.36
2023-02-11T06:08:20.409Z,1009.30
2023-02-11T06:09:20.385Z,1009.39
2023-02-11T06:10:20.395Z,1009.35
2023-02-11T06:11:20.395Z,1009.36
2023-02-11T06:12:20.385Z,1009.38
2023-02-11T06:13:20.376Z,1009.37
2023-02-11T06:14:20.396Z,1009.30
2023-02-11T06:15:20.379Z,1009.25
2023-02-11T06:16:20.406Z,1009.24
2023-02-11T06:17:20.342Z,1009.23
2023-02-11T06:18:20.343Z,1009.22
2023-02-11T06:19:20.340Z,1009.26
2023-02-11T06:20:20.342Z,1009.26
2023-02-11T06:21:20.328Z,1009.17
2023-02-11T06:22:20.326Z,1009.20
2023-02-11T06:23:20.326Z,1009.22
2023-02-11T06:24:33.099Z,1009.23
2023-02-11T06:25:22.301Z,1009.20
2023-02-11T06:26:20.282Z,1009.26
2023-02-11T06:27:20.291Z,1009.25
2023-02-11T06:28:20.439Z,1009.35
2023-02-11T06:29:20.258Z,1009.32
2023-02-11T06:30:20.278Z,1009.24
2023-02-11T06:31:20.387Z,1009.30
2023-02-11T06:32:39.290Z,1009.30
2023-02-11T06:33:22.238Z,1009.38
2023-02-11T06:34:20.227Z,1009.33
2023-02-11T06:35:20.264Z,1009.38
2023-02-11T06:36:20.214Z,1009.36
2023-02-11T06:37:20.214Z,1009.26
2023-02-11T06:38:20.215Z,1009.29
2023-02-11T06:39:20.236Z,1009.37
2023-02-11T06:40:20.200Z,1009.30
2023-02-11T06:41:20.218Z,1009.30
2023-02-11T06:42:20.187Z,1009.32
2023-02-11T06:43:21.174Z,1009.35
2023-02-11T06:44:20.200Z,1009.35
2023-02-11T06:45:20.167Z,1009.31
2023-02-11T06:46:20.214Z,1009.33
2023-02-11T06:47:20.148Z,1009.38
2023-02-11T06:48:20.135Z,1009.43
2023-02-11T06:49:20.138Z,1009.45
2023-02-11T06:50:20.136Z,1009.47
2023-02-11T06:51:20.148Z,1009.52
2023-02-11T06:52:20.109Z,1009.48
2023-02-11T06:53:20.116Z,1009.52
2023-02-11T06:54:20.096Z,1009.52
2023-02-11T06:55:20.096Z,1009.49
2023-02-11T06:56:20.072Z,1009.57
2023-02-11T06:57:20.091Z,1009.49
2023-02-11T06:58:20.067Z,1009.51
2023-02-11T06:59:20.063Z,1009.59
2023-02-11T07:00:20.061Z,1009.61
2023-02-11T07:01:20.320Z,1009.63
2023-02-11T07:02:21.119Z,1009.58
2023-02-11T07:03:21.176Z,1009.56
2023-02-11T07:04:20.025Z,1009.68
2023-02-11T07:05:20.016Z,1009.66
2023-02-11T07:06:20.007Z,1009.63
2023-02-11T07:07:20.016Z,1009.70
2023-02-11T07:08:20.014Z,1009.66
2023-02-11T07:09:19.985Z,1009.61
2023-02-11T07:10:19.989Z,1009.56
2023-02-11T07:11:19.975Z,1009.54
2023-02-11T07:12:19.966Z,1009.61
2023-02-11T07:13:19.998Z,1009.59
2023-02-11T07:14:19.956Z,1009.65
2023-02-11T07:15:19.950Z,1009.62
2023-02-11T07:16:19.982Z,1009.64
2023-02-11T07:17:19.937Z,1009.63
2023-02-11T07:18:19.959Z,1009.60
2023-02-11T07:19:20.047Z,1009.60
2023-02-11T07:20:19.936Z,1009.60
2023-02-11T07:21:19.912Z,1009.57
2023-02-11T07:22:19.896Z,1009.62
2023-02-11T07:23:19.903Z,1009.56
2023-02-11T07:24:19.941Z,1009.60
2023-02-11T07:25:19.907Z,1009.62
2023-02-11T07:26:19.889Z,1009.62
2023-02-11T07:27:19.883Z,1009.61
2023-02-11T07:28:19.955Z,1009.61
2023-02-11T07:29:19.885Z,1009.62
2023-02-11T07:30:19.886Z,1009.67
2023-02-11T07:31:20.031Z,1009.69
2023-02-11T07:32:19.963Z,1009.75
2023-02-11T07:33:19.828Z,1009.64
2023-02-11T07:34:19.846Z,1009.73
2023-02-11T07:35:19.844Z,1009.75
2023-02-11T07:36:19.819Z,1009.83
2023-02-11T07:37:19.796Z,1009.80
2023-02-11T07:38:19.810Z,1009.81
2023-02-11T07:39:19.788Z,1009.83
2023-02-11T07:40:19.795Z,1009.81
2023-02-11T07:41:19.786Z,1009.80
2023-02-11T07:42:19.770Z,1009.81
2023-02-11T07:43:19.760Z,1009.89
2023-02-11T07:44:19.762Z,1009.83
2023-02-11T07:45:19.768Z,1009.80
2023-02-11T07:46:19.832Z,1009.86
2023-02-11T07:47:19.742Z,1009.86
2023-02-11T07:48:19.726Z,1009.69
2023-02-11T07:49:20.210Z,1009.74
2023-02-11T07:50:19.726Z,1009.65
2023-02-11T07:51:20.669Z,1009.67
2023-02-11T07:52:19.709Z,1009.82
2023-02-11T07:53:19.699Z,1009.74
2023-02-11T07:54:19.750Z,1009.73
2023-02-11T07:55:19.686Z,1009.77
2023-02-11T07:56:19.672Z,1009.77
2023-02-11T07:57:19.673Z,1009.77
2023-02-11T07:58:19.652Z,1009.95
2023-02-11T07:59:19.652Z,1009.81
2023-02-11T08:00:21.205Z,1009.83
2023-02-11T08:01:20.666Z,1009.89
2023-02-11T08:02:19.663Z,1009.82
2023-02-11T08:03:19.624Z,1009.89
2023-02-11T08:04:19.635Z,1009.86
2023-02-11T08:05:19.611Z,1009.84
2023-02-11T08:06:19.609Z,1009.87
2023-02-11T08:07:19.600Z,1009.92
2023-02-11T08:08:19.605Z,1009.86
2023-02-11T08:09:19.612Z,1009.93
2023-02-11T08:10:19.584Z,1009.89
2023-02-11T08:11:19.608Z,1009.98
2023-02-11T08:12:19.573Z,1009.91
2023-02-11T08:13:19.554Z,1009.92
2023-02-11T08:14:19.554Z,1009.99
2023-02-11T08:15:19.551Z,1010.02
2023-02-11T08:16:19.609Z,1009.94
2023-02-11T08:17:19.523Z,1010.01
2023-02-11T08:18:19.510Z,1009.91
2023-02-11T08:19:19.505Z,1009.98
2023-02-11T08:20:19.500Z,1010.01
2023-02-11T08:21:19.521Z,1009.95
2023-02-11T08:22:19.480Z,1010.00
2023-02-11T08:23:20.486Z,1010.02
2023-02-11T08:24:19.473Z,1010.13
2023-02-11T08:25:19.471Z,1010.07
2023-02-11T08:26:19.475Z,1010.11
2023-02-11T08:27:19.456Z,1010.07
2023-02-11T08:28:19.490Z,1010.12
2023-02-11T08:29:19.460Z,1010.07
2023-02-11T08:30:19.439Z,1010.09
2023-02-11T08:31:19.574Z,1010.16
2023-02-11T08:32:19.528Z,1010.14
2023-02-11T08:33:19.424Z,1010.18
2023-02-11T08:34:19.413Z,1010.03
2023-02-11T08:35:19.419Z,1010.08
2023-02-11T08:36:19.493Z,1010.09
2023-02-11T08:37:19.394Z,1010.05
2023-02-11T08:38:19.382Z,1010.04
2023-02-11T08:39:20.669Z,1010.02
2023-02-11T08:40:20.396Z,1010.04
2023-02-11T08:41:19.402Z,1010.04
2023-02-11T08:42:19.353Z,1010.08
2023-02-11T08:43:19.349Z,1010.02
2023-02-11T08:44:19.357Z,1010.07
2023-02-11T08:45:19.332Z,1010.02
2023-02-11T08:46:19.384Z,1010.08
2023-02-11T08:47:19.326Z,1010.17
2023-02-11T08:48:19.320Z,1009.95
2023-02-11T08:49:19.316Z,1010.02
2023-02-11T08:50:19.298Z,1010.06
2023-02-11T08:51:19.293Z,1010.07
2023-02-11T08:52:19.345Z,1010.12
2023-02-11T08:53:19.277Z,1010.08
2023-02-11T08:54:19.274Z,1010.06
2023-02-11T08:55:19.286Z,1010.03
2023-02-11T08:56:19.267Z,1009.99
2023-02-11T08:57:19.247Z,1009.97
2023-02-11T08:58:19.367Z,1010.08
2023-02-11T08:59:19.237Z,1010.06
2023-02-11T09:00:19.266Z,1010.06
2023-02-11T09:01:21.119Z,1010.06
2023-02-11T09:02:19.274Z,1010.05
2023-02-11T09:03:19.222Z,1010.10
2023-02-11T09:04:19.227Z,1010.07
2023-02-11T09:05:19.202Z,1010.06
2023-02-11T09:06:19.186Z,1010.12
2023-02-11T09:07:19.195Z,1010.09
2023-02-11T09:08:19.190Z,1010.04
2023-02-11T09:09:19.191Z,1010.09
2023-02-11T09:10:19.169Z,1010.10
2023-02-11T09:11:19.168Z,1010.09
2023-02-11T09:12:19.155Z,1010.08
2023-02-11T09:13:19.142Z,1010.03
2023-02-11T09:14:19.161Z,1010.00
2023-02-11T09:15:19.129Z,1010.03
2023-02-11T09:16:19.136Z,1010.07
2023-02-11T09:17:19.129Z,1010.06
2023-02-11T09:18:19.126Z,1010.13
2023-02-11T09:19:19.113Z,1010.10
2023-02-11T09:20:19.110Z,1010.04
2023-02-11T09:21:19.115Z,1010.00
2023-02-11T09:22:19.077Z,1010.13
2023-02-11T09:23:20.073Z,1010.14
2023-02-11T09:24:19.077Z,1010.27
2023-02-11T09:25:19.096Z,1010.16
2023-02-11T09:26:19.058Z,1010.24
2023-02-11T09:27:19.235Z,1010.31
2023-02-11T09:28:19.048Z,1010.22
2023-02-11T09:29:19.061Z,1010.32
2023-02-11T09:30:19.053Z,1010.31
2023-02-11T09:31:19.114Z,1010.25
2023-02-11T09:32:19.045Z,1010.28
2023-02-11T09:33:19.022Z,1010.27
2023-02-11T09:34:19.023Z,1010.24
2023-02-11T09:35:19.022Z,1010.31
2023-02-11T09:36:19.018Z,1010.28
2023-02-11T09:37:19.016Z,1010.25
2023-02-11T09:38:18.994Z,1010.19
2023-02-11T09:39:18.982Z,1010.06
2023-02-11T09:40:18.974Z,1010.08
2023-02-11T09:41:18.974Z,1010.05
2023-02-11T09:42:18.972Z,1010.13
2023-02-11T09:43:18.952Z,1010.07
2023-02-11T09:44:18.947Z,1010.08
2023-02-11T09:45:18.950Z,1010.09
2023-02-11T09:46:18.943Z,1010.18
2023-02-11T09:47:18.931Z,1010.08
2023-02-11T09:48:18.916Z,1010.14
2023-02-11T09:49:18.916Z,1010.08
2023-02-11T09:50:18.902Z,1010.09
2023-02-11T09:51:18.896Z,1010.04
2023-02-11T09:52:18.976Z,1010.03
2023-02-11T09:53:18.883Z,1010.08
2023-02-11T09:54:18.879Z,1010.03
2023-02-11T09:55:18.880Z,1010.04
2023-02-11T09:56:18.872Z,1010.04
2023-02-11T09:57:28.164Z,1010.06
2023-02-11T09:58:20.867Z,1010.13
2023-02-11T09:59:18.875Z,1010.01
2023-02-11T10:00:18.863Z,1010.06
2023-02-11T10:01:20.975Z,1010.11
2023-02-11T10:02:19.847Z,1010.08
2023-02-11T10:03:18.829Z,1010.11
2023-02-11T10:04:18.872Z,1010.17
2023-02-11T10:05:18.815Z,1010.16
2023-02-11T10:06:18.823Z,1010.14
2023-02-11T10:07:18.894Z,1010.18
2023-02-11T10:08:18.791Z,1010.10
2023-02-11T10:09:18.783Z,1010.26
2023-02-11T10:10:18.775Z,1010.24
2023-02-11T10:11:30.951Z,1010.22
2023-02-11T10:12:20.779Z,1010.20
2023-02-11T10:13:18.762Z,1010.17
2023-02-11T10:14:18.756Z,1010.12
2023-02-11T10:15:18.735Z,1010.23
2023-02-11T10:16:18.749Z,1010.19
2023-02-11T10:17:18.828Z,1010.29
2023-02-11T10:18:18.724Z,1010.41
2023-02-11T10:19:18.721Z,1010.21
2023-02-11T10:20:18.703Z,1010.13
2023-02-11T10:21:18.718Z,1010.28
2023-02-11T10:22:18.705Z,1010.16
2023-02-11T10:23:18.696Z,1010.21
2023-02-11T10:24:18.688Z,1010.28
2023-02-11T10:25:18.673Z,1010.27
2023-02-11T10:26:18.685Z,1010.40
2023-02-11T10:27:18.656Z,1010.32
2023-02-11T10:28:18.727Z,1010.34
2023-02-11T10:29:18.651Z,1010.44
2023-02-11T10:30:18.650Z,1010.38
2023-02-11T10:31:18.754Z,1010.45
2023-02-11T10:32:18.625Z,1010.35
2023-02-11T10:33:18.650Z,1010.32
2023-02-11T10:34:18.613Z,1010.38
2023-02-11T10:35:18.653Z,1010.33
2023-02-11T10:36:18.592Z,1010.33
2023-02-11T10:37:18.611Z,1010.44
2023-02-11T10:38:19.015Z,1010.38
2023-02-11T10:39:18.567Z,1010.41
2023-02-11T10:40:20.037Z,1010.45
2023-02-11T10:41:18.562Z,1010.36
2023-02-11T10:42:18.558Z,1010.45
2023-02-11T10:43:18.559Z,1010.46
2023-02-11T10:44:18.533Z,1010.42
2023-02-11T10:45:19.540Z,1010.45
2023-02-11T10:46:18.567Z,1010.48
2023-02-11T10:47:18.522Z,1010.56
2023-02-11T10:48:18.555Z,1010.41
2023-02-11T10:49:18.511Z,1010.35
2023-02-11T10:50:18.514Z,1010.39
2023-02-11T10:51:18.507Z,1010.48
2023-02-11T10:52:18.512Z,1010.33
2023-02-11T10:53:18.494Z,1010.35
2023-02-11T10:54:18.481Z,1010.38
2023-02-11T10:55:18.509Z,1010.34
2023-02-11T10:56:18.501Z,1010.26
2023-02-11T10:57:18.470Z,1010.33
2023-02-11T10:58:18.451Z,1010.33
2023-02-11T10:59:21.137Z,1010.34
2023-02-11T11:00:19.458Z,1010.38
2023-02-11T11:01:24.361Z,1010.33
2023-02-11T11:02:19.418Z,1010.34
2023-02-11T11:03:18.435Z,1010.36
2023-02-11T11:04:18.477Z,1010.39
2023-02-11T11:05:18.418Z,1010.40
2023-02-11T11:06:18.411Z,1010.34
2023-02-11T11:07:18.391Z,1010.41
2023-02-11T11:08:18.399Z,1010.46
2023-02-11T11:09:18.423Z,1010.44
2023-02-11T11:10:18.369Z,1010.33
2023-02-11T11:11:18.375Z,1010.34
2023-02-11T11:12:18.371Z,1010.34
2023-02-11T11:13:18.356Z,1010.39
2023-02-11T11:14:18.351Z,1010.36
2023-02-11T11:15:18.347Z,1010.43
2023-02-11T11:16:18.455Z,1010.32
2023-02-11T11:17:18.326Z,1010.37
2023-02-11T11:18:23.191Z,1010.39
2023-02-11T11:19:20.327Z,1010.33
2023-02-11T11:20:18.315Z,1010.39
2023-02-11T11:21:18.312Z,1010.40
2023-02-11T11:22:18.288Z,1010.37
2023-02-11T11:23:18.299Z,1010.41
2023-02-11T11:24:18.274Z,1010.42
2023-02-11T11:25:18.305Z,1010.30
2023-02-11T11:26:18.443Z,1010.39
2023-02-11T11:27:18.255Z,1010.40
2023-02-11T11:28:18.291Z,1010.37
2023-02-11T11:29:18.249Z,1010.30
2023-02-11T11:30:18.242Z,1010.33
2023-02-11T11:31:18.424Z,1010.34
2023-02-11T11:32:20.458Z,1010.38
2023-02-11T11:33:19.237Z,1010.38
2023-02-11T11:34:18.207Z,1010.34
2023-02-11T11:35:18.218Z,1010.28
2023-02-11T11:36:18.256Z,1010.42
2023-02-11T11:37:18.189Z,1010.34
2023-02-11T11:38:18.189Z,1010.34
2023-02-11T11:39:18.199Z,1010.32
2023-02-11T11:40:18.167Z,1010.27
2023-02-11T11:41:18.172Z,1010.35
2023-02-11T11:42:18.163Z,1010.25
2023-02-11T11:43:18.141Z,1010.32
2023-02-11T11:44:18.149Z,1010.33
2023-02-11T11:45:18.161Z,1010.29
2023-02-11T11:46:18.141Z,1010.28
2023-02-11T11:47:18.117Z,1010.29
2023-02-11T11:48:19.068Z,1010.35
2023-02-11T11:49:18.165Z,1010.27
2023-02-11T11:50:20.990Z,1010.26
2023-02-11T11:51:19.160Z,1010.20
2023-02-11T11:52:18.083Z,1010.26
2023-02-11T11:53:18.077Z,1010.22
2023-02-11T11:54:18.073Z,1010.23
2023-02-11T11:55:18.093Z,1010.16
2023-02-11T11:56:18.071Z,1010.12
2023-02-11T11:57:18.042Z,1010.11
2023-02-11T11:58:18.052Z,1010.15
2023-02-11T11:59:18.037Z,1010.15
2023-02-11T12:00:18.047Z,1010.11
2023-02-11T12:01:18.035Z,1010.18
2023-02-11T12:02:18.109Z,1010.21
2023-02-11T12:03:18.117Z,1010.23
2023-02-11T12:04:18.003Z,1010.23
2023-02-11T12:05:18.002Z,1010.27